Time;durP1;ratioP1;P1;durP2;ratioP2;P2;SDS_P1;SDS_P2;PMS_P1;PMS_P2;Temp;Humidity;BMP_temperature;BMP_pressure;BME280_temperature;BME280_humidity;BME280_pressure;Samples;Min_cycle;Max_cycle;Signal;HPM_P1;HPM_P2
2021/11/29 00:02:22;;;;;;;3.80;2.00;;;;;;;2.12;92.98;99173.64;102448;1315;72468;-76
2021/11/29 00:04:49;;;;;;;3.40;2.00;;;;;;;2.12;93.13;99177.30;102339;1315;62323;-77
2021/11/29 00:07:15;;;;;;;3.30;2.00;;;;;;;2.12;92.58;99179.89;102748;1315;62442;-76
2021/11/29 00:09:42;;;;;;;3.70;2.00;;;;;;;2.12;92.07;99179.02;102399;1314;74904;-77
2021/11/29 00:12:09;;;;;;;3.90;2.20;;;;;;;2.11;91.85;99180.51;102401;1315;71426;-78
2021/11/29 00:14:36;;;;;;;4.00;1.70;;;;;;;2.11;92.27;99180.15;102280;1315;71976;-78
2021/11/29 00:17:03;;;;;;;4.30;2.00;;;;;;;2.12;92.45;99182.99;102330;1312;63087;-79
2021/11/29 00:19:30;;;;;;;3.10;1.50;;;;;;;2.13;92.89;99187.05;103073;1314;61244;-79
2021/11/29 00:21:57;;;;;;;3.70;1.50;;;;;;;2.13;93.13;99190.39;102684;1315;74927;-78
2021/11/29 00:24:23;;;;;;;2.90;1.80;;;;;;;2.13;93.29;99194.38;102147;1315;72306;-75
2021/11/29 00:26:50;;;;;;;4.20;2.50;;;;;;;2.13;93.75;99198.59;102265;1315;72882;-76
2021/11/29 00:29:17;;;;;;;3.00;1.80;;;;;;;2.12;93.89;99200.77;102250;1314;61324;-76
2021/11/29 00:31:44;;;;;;;3.90;2.00;;;;;;;2.10;94.20;99206.36;102305;1314;61261;-77
2021/11/29 00:34:11;;;;;;;5.10;2.60;;;;;;;2.10;94.33;99205.92;102335;1313;75542;-75
2021/11/29 00:36:38;;;;;;;2.70;2.00;;;;;;;2.08;94.80;99208.25;102143;1315;72926;-77
2021/11/29 00:39:04;;;;;;;3.30;2.20;;;;;;;2.05;94.72;99208.06;102349;1314;72714;-76
2021/11/29 00:41:31;;;;;;;5.00;2.50;;;;;;;2.05;94.89;99213.13;102378;1315;62306;-78
2021/11/29 00:43:58;;;;;;;2.40;1.30;;;;;;;2.03;95.38;99215.55;102371;1315;61344;-77
2021/11/29 00:46:24;;;;;;;2.50;1.60;;;;;;;1.99;95.91;99209.06;102388;1315;62960;-79
2021/11/29 00:48:52;;;;;;;2.00;1.20;;;;;;;1.95;96.50;99209.66;102892;1313;72411;-77
2021/11/29 00:51:18;;;;;;;4.10;1.70;;;;;;;1.90;96.93;99210.67;102439;1315;74580;-79
2021/11/29 00:53:46;;;;;;;3.20;1.90;;;;;;;1.85;97.16;99215.52;102458;1313;61403;-80
2021/11/29 00:56:15;;;;;;;2.90;2.10;;;;;;;1.80;97.58;99210.98;102271;1315;61648;-78
2021/11/29 00:58:41;;;;;;;3.90;2.50;;;;;;;1.78;97.67;99212.64;102814;1315;75048;-76
2021/11/29 01:01:08;;;;;;;3.40;2.30;;;;;;;1.76;98.22;99210.70;102303;1315;70331;-76
2021/11/29 01:03:39;;;;;;;3.30;1.80;;;;;;;1.73;98.23;99213.60;102143;1315;73007;-76
2021/11/29 01:06:07;;;;;;;4.60;2.40;;;;;;;1.72;98.58;99214.61;102267;1314;61467;-77
2021/11/29 01:08:35;;;;;;;4.00;2.40;;;;;;;1.70;98.59;99217.23;102335;1316;61339;-75
2021/11/29 01:11:04;;;;;;;4.10;2.10;;;;;;;1.69;98.72;99215.76;102261;1314;76132;-76
2021/11/29 01:13:31;;;;;;;4.70;2.00;;;;;;;1.67;98.88;99217.02;102420;1315;72588;-77
2021/11/29 01:15:58;;;;;;;4.10;2.00;;;;;;;1.66;98.96;99219.39;102401;1315;74129;-79
2021/11/29 01:18:25;;;;;;;2.00;1.50;;;;;;;1.66;99.38;99218.52;102896;1315;61318;-77
2021/11/29 01:20:51;;;;;;;5.00;2.20;;;;;;;1.65;99.29;99222.29;102409;1315;61174;-76
2021/11/29 01:23:20;;;;;;;3.90;2.20;;;;;;;1.64;99.26;99220.23;102485;1313;74683;-78
2021/11/29 01:25:46;;;;;;;3.30;1.80;;;;;;;1.65;99.35;99222.10;102314;1315;72390;-74
2021/11/29 01:28:14;;;;;;;8.20;2.60;;;;;;;1.65;99.64;99230.11;102216;1315;72863;-79
2021/11/29 01:30:41;;;;;;;4.00;2.60;;;;;;;1.66;99.33;99228.99;102648;1315;62038;-75
2021/11/29 01:33:08;;;;;;;2.70;2.00;;;;;;;1.67;99.41;99226.42;102262;1315;61292;-78
2021/11/29 01:35:35;;;;;;;3.20;1.90;;;;;;;1.68;99.31;99227.21;102204;1313;76197;-74
2021/11/29 01:38:02;;;;;;;3.30;2.10;;;;;;;1.68;99.37;99225.29;102179;1315;71424;-76
2021/11/29 01:40:29;;;;;;;3.50;2.20;;;;;;;1.68;99.44;99223.33;102364;1315;72892;-79
2021/11/29 01:43:03;;;;;;;2.30;1.60;;;;;;;1.70;99.35;99221.02;102254;1315;61518;-75
2021/11/29 01:45:34;;;;;;;1.50;1.10;;;;;;;1.70;99.05;99223.15;102190;1314;61409;-75
2021/11/29 01:48:01;;;;;;;5.40;2.40;;;;;;;1.69;99.23;99223.44;102321;1314;76764;-76
2021/11/29 01:50:29;;;;;;;3.00;1.70;;;;;;;1.68;98.98;99229.34;102096;1316;70439;-76
2021/11/29 01:52:56;;;;;;;3.90;1.70;;;;;;;1.65;98.87;99231.34;102377;1315;71419;-78
2021/11/29 01:55:23;;;;;;;3.00;1.70;;;;;;;1.64;98.89;99228.96;102317;1315;61202;-77
2021/11/29 01:57:49;;;;;;;4.00;2.00;;;;;;;1.64;99.17;99238.08;102270;1315;61423;-76
2021/11/29 02:00:21;;;;;;;4.30;3.10;;;;;;;1.62;99.15;99240.30;102284;1314;75904;-76
2021/11/29 02:02:53;;;;;;;3.60;1.20;;;;;;;1.60;99.15;99236.48;102249;1315;71518;-79
2021/11/29 02:05:21;;;;;;;7.50;2.70;;;;;;;1.59;99.50;99238.54;102235;1315;73015;-78
2021/11/29 02:07:48;;;;;;;3.20;1.80;;;;;;;1.59;99.49;99242.39;102632;1315;61419;-78
2021/11/29 02:10:17;;;;;;;5.20;1.70;;;;;;;1.58;99.69;99242.67;102356;1315;62020;-78
2021/11/29 02:12:45;;;;;;;5.00;2.40;;;;;;;1.57;99.69;99242.04;102323;1315;75930;-76
2021/11/29 02:15:14;;;;;;;3.30;1.70;;;;;;;1.58;99.72;99244.38;102218;1315;71997;-75
2021/11/29 02:17:42;;;;;;;2.70;1.60;;;;;;;1.59;99.82;99249.14;102269;1315;72653;-76
2021/11/29 02:20:09;;;;;;;2.70;2.10;;;;;;;1.61;99.70;99248.24;102416;1314;61368;-76
2021/11/29 02:22:37;;;;;;;3.50;2.10;;;;;;;1.62;99.87;99253.41;102251;1313;61646;-76
2021/11/29 02:25:04;;;;;;;2.70;1.50;;;;;;;1.61;99.92;99253.60;102378;1315;74647;-77
2021/11/29 02:27:31;;;;;;;2.60;1.50;;;;;;;1.62;99.95;99255.94;102533;1313;71705;-77
2021/11/29 02:29:58;;;;;;;3.00;1.70;;;;;;;1.60;99.99;99256.84;102379;1315;73174;-80
2021/11/29 02:32:29;;;;;;;3.80;2.00;;;;;;;1.59;99.98;99257.69;102534;1315;61390;-78
2021/11/29 02:34:56;;;;;;;5.10;2.20;;;;;;;1.58;99.98;99256.75;102424;1315;61285;-78
2021/11/29 02:37:25;;;;;;;3.60;2.10;;;;;;;1.57;100.00;99254.43;102396;1315;74670;-77
2021/11/29 02:39:52;;;;;;;4.20;2.10;;;;;;;1.56;100.00;99253.14;102050;1316;72003;-76
2021/11/29 02:42:18;;;;;;;6.60;2.70;;;;;;;1.55;100.00;99253.40;102348;1310;72933;-76
2021/11/29 02:44:46;;;;;;;5.70;2.90;;;;;;;1.57;100.00;99255.96;102313;1315;62253;-77
2021/11/29 02:47:12;;;;;;;4.40;2.40;;;;;;;1.59;100.00;99259.28;102227;1315;61455;-75
2021/11/29 02:49:39;;;;;;;8.10;4.00;;;;;;;1.57;100.00;99259.27;102280;1315;75125;-76
2021/11/29 02:52:12;;;;;;;6.00;3.00;;;;;;;1.56;100.00;99260.11;102198;1315;71171;-75
2021/11/29 02:54:43;;;;;;;6.90;4.80;;;;;;;1.54;100.00;99265.84;102311;1315;73917;-78
2021/11/29 02:57:21;;;;;;;10.40;4.50;;;;;;;1.54;100.00;99268.65;102173;1316;62616;-77
2021/11/29 02:59:48;;;;;;;9.60;3.90;;;;;;;1.53;100.00;99270.48;102432;1315;61412;-81
2021/11/29 03:02:18;;;;;;;8.70;4.10;;;;;;;1.54;100.00;99268.27;102959;1315;74934;-79
2021/11/29 03:04:45;;;;;;;7.80;4.10;;;;;;;1.56;100.00;99272.82;103200;1313;71190;-81
2021/11/29 03:07:13;;;;;;;4.40;2.60;;;;;;;1.57;100.00;99274.42;102986;1315;73187;-80
2021/11/29 03:09:41;;;;;;;6.50;3.90;;;;;;;1.58;100.00;99270.38;102797;1315;62161;-79
2021/11/29 03:12:08;;;;;;;4.10;2.70;;;;;;;1.57;100.00;99275.45;102853;1315;61330;-78
2021/11/29 03:14:35;;;;;;;6.00;3.30;;;;;;;1.58;100.00;99272.05;102524;1315;75544;-78
2021/11/29 03:17:02;;;;;;;4.60;2.90;;;;;;;1.60;100.00;99272.79;102411;1315;70432;-78
2021/11/29 03:19:31;;;;;;;5.80;3.80;;;;;;;1.61;100.00;99280.89;102523;1315;72968;-77
2021/11/29 03:22:03;;;;;;;5.30;3.00;;;;;;;1.62;100.00;99280.92;102409;1315;62744;-76
2021/11/29 03:24:35;;;;;;;6.50;3.60;;;;;;;1.63;100.00;99281.52;102398;1315;61209;-76
2021/11/29 03:27:02;;;;;;;3.70;2.10;;;;;;;1.64;100.00;99281.92;102360;1315;74925;-76
2021/11/29 03:29:29;;;;;;;4.40;2.20;;;;;;;1.62;100.00;99279.70;102483;1315;73134;-77
2021/11/29 03:31:59;;;;;;;6.10;2.80;;;;;;;1.59;100.00;99280.02;102378;1315;73986;-77
2021/11/29 03:34:27;;;;;;;4.50;2.90;;;;;;;1.58;100.00;99284.13;102335;1315;62346;-75
2021/11/29 03:36:54;;;;;;;7.80;2.90;;;;;;;1.58;100.00;99280.11;102401;1313;61244;-75
2021/11/29 03:39:26;;;;;;;6.30;3.20;;;;;;;1.59;100.00;99282.99;102285;1315;74588;-75
2021/11/29 03:41:57;;;;;;;4.20;2.40;;;;;;;1.60;100.00;99289.97;102326;1315;71461;-75
2021/11/29 03:44:25;;;;;;;6.10;3.80;;;;;;;1.61;100.00;99287.85;102253;1315;74340;-77
2021/11/29 03:46:54;;;;;;;5.90;3.30;;;;;;;1.61;100.00;99294.25;102234;1315;61381;-76
2021/11/29 03:49:22;;;;;;;8.90;3.90;;;;;;;1.61;100.00;99293.56;102411;1315;61769;-75
2021/11/29 03:51:49;;;;;;;6.60;4.30;;;;;;;1.60;100.00;99293.63;102297;1315;76004;-75
2021/11/29 03:54:16;;;;;;;6.80;4.10;;;;;;;1.60;99.96;99298.75;102224;1315;71271;-76
2021/11/29 03:56:42;;;;;;;6.40;3.40;;;;;;;1.59;100.00;99299.48;102251;1315;74655;-75
2021/11/29 03:59:09;;;;;;;4.00;2.80;;;;;;;1.57;100.00;99296.90;102199;1315;61485;-75
2021/11/29 04:01:36;;;;;;;4.80;2.70;;;;;;;1.57;99.99;99303.00;102207;1315;62021;-76
2021/11/29 04:04:04;;;;;;;11.10;3.70;;;;;;;1.57;100.00;99302.47;102193;1315;75617;-75
2021/11/29 04:06:31;;;;;;;5.50;3.60;;;;;;;1.57;100.00;99301.94;102197;1312;72592;-75
2021/11/29 04:08:57;;;;;;;6.50;3.40;;;;;;;1.58;99.88;99306.05;102255;1310;73973;-75
2021/11/29 04:11:24;;;;;;;5.20;3.80;;;;;;;1.59;99.96;99304.95;102205;1315;61409;-76
2021/11/29 04:13:50;;;;;;;5.20;2.80;;;;;;;1.58;99.87;99305.71;102142;1315;61205;-75
2021/11/29 04:16:17;;;;;;;6.10;2.80;;;;;;;1.57;99.93;99308.98;102276;1315;76019;-75
2021/11/29 04:18:45;;;;;;;4.40;3.20;;;;;;;1.57;99.94;99314.71;102302;1315;72949;-79
2021/11/29 04:21:12;;;;;;;6.30;3.50;;;;;;;1.55;99.83;99313.88;102389;1315;71470;-78
2021/11/29 04:23:43;;;;;;;4.40;3.10;;;;;;;1.54;99.75;99315.04;102242;1315;61501;-78
2021/11/29 04:26:12;;;;;;;5.80;3.80;;;;;;;1.54;99.90;99318.46;102318;1315;61409;-78
2021/11/29 04:28:40;;;;;;;4.90;3.50;;;;;;;1.55;99.68;99328.89;102346;1315;76005;-77
2021/11/29 04:31:07;;;;;;;4.20;2.40;;;;;;;1.56;99.83;99323.71;102299;1315;70762;-76
2021/11/29 04:33:35;;;;;;;8.20;3.60;;;;;;;1.57;99.78;99331.64;102329;1315;73997;-76
2021/11/29 04:36:03;;;;;;;4.60;2.10;;;;;;;1.58;99.72;99334.84;102243;1315;62267;-76
2021/11/29 04:38:31;;;;;;;5.20;2.90;;;;;;;1.58;99.38;99338.48;102412;1315;61451;-77
2021/11/29 04:40:58;;;;;;;4.50;2.70;;;;;;;1.58;99.57;99344.41;102282;1315;74909;-79
2021/11/29 04:43:25;;;;;;;8.10;4.90;;;;;;;1.58;99.16;99350.48;102441;1315;72186;-78
2021/11/29 04:45:51;;;;;;;7.80;3.00;;;;;;;1.59;99.29;99349.69;102432;1315;72971;-79
2021/11/29 04:48:18;;;;;;;6.80;4.20;;;;;;;1.58;98.90;99350.10;102448;1315;61300;-78
2021/11/29 04:50:46;;;;;;;5.50;3.50;;;;;;;1.58;98.83;99349.94;102297;1315;61303;-77
2021/11/29 04:53:12;;;;;;;4.00;2.00;;;;;;;1.58;98.90;99353.98;102475;1315;74962;-74
2021/11/29 04:55:39;;;;;;;6.40;3.70;;;;;;;1.57;98.69;99355.78;102238;1315;71555;-76
2021/11/29 04:58:05;;;;;;;5.00;3.20;;;;;;;1.56;98.96;99354.30;102141;1315;73830;-76
2021/11/29 05:00:32;;;;;;;9.60;3.60;;;;;;;1.57;99.00;99352.36;102096;1315;61199;-76
2021/11/29 05:02:59;;;;;;;5.90;3.00;;;;;;;1.57;99.06;99354.24;102287;1315;61323;-76
2021/11/29 05:05:26;;;;;;;5.70;3.40;;;;;;;1.56;98.88;99356.23;102241;1315;76114;-77
2021/11/29 05:08:13;;;;;;;6.30;3.70;;;;;;;1.56;98.56;99363.64;102294;1315;73450;-76
2021/11/29 05:10:39;;;;;;;6.50;3.60;;;;;;;1.55;98.58;99365.42;102157;1315;72841;-75
2021/11/29 05:13:06;;;;;;;8.30;4.70;;;;;;;1.56;98.84;99366.35;102217;1315;61189;-76
2021/11/29 05:15:32;;;;;;;5.80;3.20;;;;;;;1.56;98.53;99371.98;102199;1315;61416;-76
2021/11/29 05:17:59;;;;;;;7.40;4.40;;;;;;;1.54;98.50;99367.05;102301;1315;74987;-77
2021/11/29 05:20:26;;;;;;;6.70;2.60;;;;;;;1.55;98.58;99372.55;102321;1315;61321;-76
2021/11/29 05:22:53;;;;;;;3.60;2.20;;;;;;;1.53;98.49;99375.50;102409;1315;74519;-79
2021/11/29 05:25:20;;;;;;;6.90;4.30;;;;;;;1.53;98.42;99374.52;102725;1315;61336;-76
2021/11/29 05:27:47;;;;;;;7.80;3.00;;;;;;;1.54;98.60;99376.83;102315;1315;60641;-78
2021/11/29 05:30:14;;;;;;;5.20;3.20;;;;;;;1.55;98.40;99382.88;102389;1315;75198;-76
2021/11/29 05:32:40;;;;;;;5.60;3.60;;;;;;;1.55;98.41;99384.60;102967;1315;71615;-77
2021/11/29 05:35:07;;;;;;;6.00;4.10;;;;;;;1.55;98.41;99390.55;102342;1315;72404;-75
2021/11/29 05:37:34;;;;;;;11.20;4.40;;;;;;;1.56;98.47;99394.96;102181;1315;61573;-79
2021/11/29 05:40:01;;;;;;;13.00;5.40;;;;;;;1.58;98.71;99402.80;102269;1315;61279;-77
2021/11/29 05:42:42;;;;;;;6.10;4.20;;;;;;;1.58;98.60;99407.11;102263;1315;74945;-75
2021/11/29 05:45:13;;;;;;;10.30;4.70;;;;;;;1.59;98.75;99410.82;102166;1315;70732;-76
2021/11/29 05:47:42;;;;;;;9.40;5.20;;;;;;;1.60;98.77;99419.67;102144;1315;72467;-75
2021/11/29 05:50:10;;;;;;;7.30;4.60;;;;;;;1.60;98.70;99422.13;102243;1315;61368;-74
2021/11/29 05:52:38;;;;;;;9.10;4.50;;;;;;;1.60;98.95;99421.70;102441;1311;60296;-76
2021/11/29 05:55:07;;;;;;;7.30;4.60;;;;;;;1.60;98.83;99426.41;102222;1315;75090;-77
2021/11/29 05:57:36;;;;;;;5.00;3.30;;;;;;;1.62;98.90;99432.98;102203;1315;72434;-77
2021/11/29 06:00:06;;;;;;;6.20;3.90;;;;;;;1.60;98.85;99443.10;102197;1315;74255;-77
2021/11/29 06:02:32;;;;;;;6.30;3.60;;;;;;;1.60;98.82;99441.58;102335;1315;62422;-78
2021/11/29 06:04:59;;;;;;;8.50;4.40;;;;;;;1.61;98.62;99442.58;102584;1315;61285;-76
2021/11/29 06:07:26;;;;;;;12.50;5.40;;;;;;;1.60;98.74;99448.06;102168;1316;61325;-76
2021/11/29 06:09:52;;;;;;;10.50;4.00;;;;;;;1.59;98.70;99447.57;102236;1315;61855;-76
2021/11/29 06:12:19;;;;;;;10.20;4.50;;;;;;;1.60;98.65;99455.72;102188;1315;72883;-76
2021/11/29 06:14:46;;;;;;;11.40;5.20;;;;;;;1.60;98.85;99459.34;102127;1315;61189;-76
2021/11/29 06:17:12;;;;;;;7.90;4.70;;;;;;;1.60;98.95;99464.08;102298;1315;61470;-77
2021/11/29 06:19:39;;;;;;;9.60;4.80;;;;;;;1.62;98.76;99469.25;102236;1315;75138;-82
2021/11/29 06:22:06;;;;;;;14.50;6.60;;;;;;;1.64;98.98;99471.73;102570;1313;70442;-75
2021/11/29 06:24:32;;;;;;;11.70;4.40;;;;;;;1.67;99.10;99474.95;102088;1316;72844;-76
2021/11/29 06:26:59;;;;;;;10.20;4.90;;;;;;;1.68;99.07;99479.58;101617;1316;633261;-76
2021/11/29 06:29:25;;;;;;;8.70;4.30;;;;;;;1.69;98.91;99480.46;102228;1316;61431;-78
2021/11/29 06:31:52;;;;;;;8.80;4.50;;;;;;;1.70;99.01;99484.27;102498;1315;61261;-79
2021/11/29 06:34:18;;;;;;;11.50;4.80;;;;;;;1.70;98.88;99487.51;102639;1315;71731;-78
2021/11/29 06:36:45;;;;;;;10.60;4.20;;;;;;;1.71;98.88;99492.34;102154;1315;61299;-75
2021/11/29 06:39:12;;;;;;;8.10;4.60;;;;;;;1.72;99.05;99495.34;102088;1315;61331;-75
2021/11/29 06:41:38;;;;;;;6.90;4.20;;;;;;;1.73;99.06;99499.98;102062;1316;62175;-76
2021/11/29 06:44:05;;;;;;;17.60;5.90;;;;;;;1.73;98.83;99497.77;102133;1315;75000;-77
2021/11/29 06:46:32;;;;;;;8.20;5.30;;;;;;;1.71;98.95;99502.78;102019;1316;61319;-75
2021/11/29 06:48:59;;;;;;;11.70;5.80;;;;;;;1.71;99.08;99508.02;102176;1315;72990;-76
2021/11/29 06:51:26;;;;;;;12.30;5.70;;;;;;;1.71;99.23;99508.02;102047;1316;61355;-75
2021/11/29 06:53:53;;;;;;;7.20;4.40;;;;;;;1.69;99.60;99513.11;102159;1316;61197;-75
2021/11/29 06:56:21;;;;;;;14.90;7.10;;;;;;;1.67;99.76;99520.73;102230;1315;74642;-75
2021/11/29 06:58:47;;;;;;;13.30;6.70;;;;;;;1.68;99.94;99524.67;102206;1315;71548;-76
2021/11/29 07:01:14;;;;;;;10.80;5.50;;;;;;;1.69;99.91;99528.92;102217;1317;72435;-78
2021/11/29 07:03:42;;;;;;;7.70;4.40;;;;;;;1.69;99.97;99531.52;102093;1316;62560;-77
2021/11/29 07:06:09;;;;;;;17.20;6.20;;;;;;;1.70;99.99;99533.96;102228;1315;61351;-75
2021/11/29 07:08:37;;;;;;;13.00;6.20;;;;;;;1.69;99.94;99537.86;102054;1316;74758;-76
2021/11/29 07:11:04;;;;;;;11.50;7.00;;;;;;;1.69;99.96;99544.51;102024;1316;72624;-76
2021/11/29 07:13:31;;;;;;;8.60;5.30;;;;;;;1.68;99.97;99547.18;102113;1315;74247;-75
2021/11/29 07:15:58;;;;;;;9.10;5.20;;;;;;;1.68;99.97;99551.55;102060;1316;61738;-74
2021/11/29 07:18:28;;;;;;;11.10;6.10;;;;;;;1.67;99.90;99559.83;102079;1313;61570;-76
2021/11/29 07:20:55;;;;;;;7.20;4.40;;;;;;;1.66;99.91;99557.98;102392;1316;74919;-76
2021/11/29 07:23:25;;;;;;;9.80;5.10;;;;;;;1.64;99.91;99564.07;102135;1315;72749;-77
2021/11/29 07:25:51;;;;;;;10.00;4.60;;;;;;;1.64;99.99;99568.61;102073;1316;61404;-76
2021/11/29 07:28:19;;;;;;;8.30;3.70;;;;;;;1.63;100.00;99568.31;102177;1313;61907;-76
2021/11/29 07:30:46;;;;;;;10.10;4.80;;;;;;;1.64;99.97;99571.57;102194;1315;61354;-75
2021/11/29 07:33:13;;;;;;;15.80;4.50;;;;;;;1.64;100.00;99572.97;101929;1316;74887;-76
2021/11/29 07:35:41;;;;;;;11.60;5.20;;;;;;;1.65;100.00;99572.55;102111;1316;72475;-74
2021/11/29 07:38:08;;;;;;;9.90;5.00;;;;;;;1.66;100.00;99579.74;102146;1315;61277;-74
2021/11/29 07:40:35;;;;;;;7.30;3.60;;;;;;;1.67;100.00;99583.20;102163;1315;61286;-75
2021/11/29 07:43:05;;;;;;;10.60;5.30;;;;;;;1.66;100.00;99588.87;102205;1315;61341;-75
2021/11/29 07:45:33;;;;;;;20.30;7.40;;;;;;;1.64;99.97;99592.36;102154;1315;76163;-75
2021/11/29 07:48:01;;;;;;;14.70;6.10;;;;;;;1.63;100.00;99596.41;102161;1316;72280;-74
2021/11/29 07:50:28;;;;;;;24.60;7.30;;;;;;;1.64;100.00;99597.37;102229;1316;72972;-76
2021/11/29 07:52:55;;;;;;;12.80;6.20;;;;;;;1.65;100.00;99599.89;102231;1315;61707;-76
2021/11/29 07:55:24;;;;;;;17.10;7.30;;;;;;;1.66;100.00;99603.28;102273;1315;61225;-79
2021/11/29 07:57:56;;;;;;;14.80;7.70;;;;;;;1.66;100.00;99607.64;102204;1315;76257;-77
2021/11/29 08:00:25;;;;;;;10.40;5.90;;;;;;;1.67;100.00;99614.69;102157;1315;71437;-74
2021/11/29 08:02:55;;;;;;;12.40;5.20;;;;;;;1.68;100.00;99613.97;102317;1315;73901;-77
2021/11/29 08:05:23;;;;;;;12.40;6.90;;;;;;;1.69;100.00;99624.06;102265;1315;62456;-75
2021/11/29 08:07:52;;;;;;;9.20;5.70;;;;;;;1.70;100.00;99625.41;102082;1317;62585;-75
2021/11/29 08:10:20;;;;;;;15.40;7.70;;;;;;;1.72;100.00;99623.80;102229;1316;74945;-75
2021/11/29 08:12:47;;;;;;;14.10;8.40;;;;;;;1.75;100.00;99634.17;102231;1317;71463;-75
2021/11/29 08:15:15;;;;;;;8.90;5.30;;;;;;;1.78;100.00;99633.58;102122;1316;71570;-74
2021/11/29 08:17:42;;;;;;;14.30;6.20;;;;;;;1.78;100.00;99642.21;102162;1315;61388;-74
2021/11/29 08:20:11;;;;;;;8.20;4.40;;;;;;;1.78;100.00;99636.13;102381;1315;61402;-74
2021/11/29 08:22:37;;;;;;;17.60;7.00;;;;;;;1.78;100.00;99639.86;102277;1316;74867;-74
2021/11/29 08:25:06;;;;;;;15.90;5.60;;;;;;;1.79;100.00;99643.73;102162;1315;71839;-75
2021/11/29 08:27:33;;;;;;;12.40;5.30;;;;;;;1.81;100.00;99647.21;102354;1316;71968;-76
2021/11/29 08:30:03;;;;;;;7.90;4.20;;;;;;;1.85;100.00;99653.31;102245;1315;61400;-77
2021/11/29 08:32:30;;;;;;;11.60;4.90;;;;;;;1.88;100.00;99659.11;102293;1317;61610;-76
2021/11/29 08:34:57;;;;;;;12.40;5.70;;;;;;;1.88;100.00;99658.02;102285;1315;76037;-77
2021/11/29 08:37:24;;;;;;;11.20;6.00;;;;;;;1.92;100.00;99662.58;102207;1315;71614;-75
2021/11/29 08:39:50;;;;;;;7.90;4.60;;;;;;;1.94;100.00;99663.04;102104;1315;71611;-75
2021/11/29 08:42:17;;;;;;;11.20;5.90;;;;;;;1.96;99.93;99665.64;102162;1315;61328;-74
2021/11/29 08:44:43;;;;;;;12.90;6.50;;;;;;;1.97;99.88;99669.08;102206;1316;61382;-75
2021/11/29 08:47:10;;;;;;;15.00;5.90;;;;;;;1.97;99.96;99667.95;102146;1315;74901;-75
2021/11/29 08:49:39;;;;;;;14.40;6.50;;;;;;;1.99;99.83;99673.40;102306;1315;71446;-75
2021/11/29 08:52:06;;;;;;;12.20;6.00;;;;;;;2.01;99.74;99675.95;102402;1316;73024;-76
2021/11/29 08:54:32;;;;;;;9.20;4.60;;;;;;;2.04;99.41;99682.17;102251;1316;61653;-76
2021/11/29 08:56:59;;;;;;;12.30;5.20;;;;;;;2.06;99.55;99686.23;102348;1316;62551;-74
2021/11/29 08:59:26;;;;;;;8.60;4.40;;;;;;;2.08;99.35;99689.66;102188;1316;74016;-73
2021/11/29 09:01:53;;;;;;;11.50;6.80;;;;;;;2.11;99.33;99696.23;102139;1315;72539;-75
2021/11/29 09:04:20;;;;;;;12.90;6.40;;;;;;;2.12;99.24;99695.59;102271;1315;74067;-75
2021/11/29 09:06:47;;;;;;;13.80;5.60;;;;;;;2.15;99.25;99698.94;102150;1315;61312;-79
2021/11/29 09:09:14;;;;;;;11.50;6.40;;;;;;;2.15;98.81;99700.14;102442;1316;61801;-77
2021/11/29 09:11:42;;;;;;;15.10;6.30;;;;;;;2.15;98.55;99701.48;102453;1315;75997;-78
2021/11/29 09:14:10;;;;;;;13.10;7.20;;;;;;;2.17;98.21;99707.48;102525;1316;73161;-78
2021/11/29 09:16:37;;;;;;;11.70;5.50;;;;;;;2.20;98.35;99708.73;102515;1316;72541;-74
2021/11/29 09:19:04;;;;;;;14.80;7.10;;;;;;;2.23;98.03;99714.02;102326;1316;61671;-79
2021/11/29 09:21:33;;;;;;;12.30;5.90;;;;;;;2.28;98.04;99715.86;102364;1316;61300;-79
2021/11/29 09:24:01;;;;;;;10.80;4.60;;;;;;;2.31;98.17;99720.78;103095;1316;76179;-78
2021/11/29 09:26:29;;;;;;;10.80;5.20;;;;;;;2.31;97.81;99722.54;102408;1316;72454;-78
2021/11/29 09:28:56;;;;;;;12.10;6.10;;;;;;;2.32;97.78;99725.23;102357;1317;74282;-78
2021/11/29 09:31:24;;;;;;;11.30;5.30;;;;;;;2.35;97.22;99729.30;102468;1314;61585;-78
2021/11/29 09:33:51;;;;;;;15.10;5.90;;;;;;;2.37;96.61;99728.41;102333;1316;61363;-78
2021/11/29 09:36:18;;;;;;;8.60;4.30;;;;;;;2.39;96.13;99732.25;102485;1313;75098;-78
2021/11/29 09:38:44;;;;;;;12.50;6.40;;;;;;;2.37;95.31;99731.00;102357;1317;71376;-79
2021/11/29 09:41:11;;;;;;;9.50;4.40;;;;;;;2.40;95.32;99737.36;103002;1320;72894;-77
2021/11/29 09:43:39;;;;;;;11.40;5.50;;;;;;;2.40;94.44;99741.54;102340;1316;61325;-76
2021/11/29 09:46:07;;;;;;;13.60;5.60;;;;;;;2.43;94.95;99744.27;102392;1316;61663;-77
2021/11/29 09:48:34;;;;;;;11.60;5.60;;;;;;;2.46;94.92;99747.98;102226;1317;75579;-78
2021/11/29 09:51:20;;;;;;;11.30;5.10;;;;;;;2.50;93.69;99747.96;102406;1315;73266;-77
2021/11/29 09:53:47;;;;;;;13.70;5.80;;;;;;;2.54;93.54;99755.95;102076;1317;72709;-75
2021/11/29 09:56:14;;;;;;;9.10;4.40;;;;;;;2.58;93.80;99758.34;102299;1316;61138;-80
2021/11/29 09:58:41;;;;;;;10.60;4.20;;;;;;;2.63;93.56;99760.33;102336;1317;61291;-76
2021/11/29 10:01:08;;;;;;;10.60;5.70;;;;;;;2.63;92.54;99760.31;102282;1316;75906;-75
2021/11/29 10:03:55;;;;;;;13.20;6.30;;;;;;;2.63;92.58;99765.25;102236;1317;73246;-76
2021/11/29 10:06:25;;;;;;;10.40;4.70;;;;;;;2.61;92.63;99769.23;102331;1316;73996;-78
2021/11/29 10:08:53;;;;;;;9.00;3.80;;;;;;;2.60;92.15;99770.40;102358;1319;61514;-78
2021/11/29 10:11:25;;;;;;;9.80;4.70;;;;;;;2.59;91.94;99771.39;102285;1316;61839;-77
2021/11/29 10:13:57;;;;;;;8.50;5.30;;;;;;;2.59;91.79;99770.48;102272;1316;75995;-76
2021/11/29 10:16:36;;;;;;;12.70;5.00;;;;;;;2.63;91.86;99770.84;102449;1317;71609;-76
2021/11/29 10:19:09;;;;;;;12.10;5.10;;;;;;;2.63;91.64;99779.88;102113;1315;72661;-76
2021/11/29 10:21:37;;;;;;;13.30;4.40;;;;;;;2.64;91.76;99781.86;102336;1314;61329;-74
2021/11/29 10:24:11;;;;;;;10.80;5.10;;;;;;;2.65;91.56;99785.77;102462;1316;61690;-78
2021/11/29 10:26:38;;;;;;;11.00;5.60;;;;;;;2.66;91.66;99790.27;102383;1315;75009;-75
2021/11/29 10:29:11;;;;;;;12.20;5.70;;;;;;;2.67;91.75;99787.38;102215;1315;72580;-76
2021/11/29 10:31:41;;;;;;;14.40;5.30;;;;;;;2.67;91.65;99791.94;102279;1316;74291;-74
2021/11/29 10:34:16;;;;;;;11.90;5.90;;;;;;;2.66;91.37;99797.06;102366;1316;61219;-77
2021/11/29 10:36:42;;;;;;;;;;;;;;;2.64;91.36;99797.43;102190;1316;61413;-74
2021/11/29 10:39:40;;;;;;;16.20;4.80;;;;;;;2.64;91.25;99797.80;102190;1316;75473;-74
2021/11/29 10:42:15;;;;;;;12.10;4.80;;;;;;;2.64;91.39;99800.20;102304;1317;71358;-76
2021/11/29 10:44:50;;;;;;;13.70;5.10;;;;;;;2.64;90.90;99796.13;102274;1316;73492;-76
2021/11/29 10:47:37;;;;;;;9.90;4.40;;;;;;;2.67;90.95;99797.46;102031;1316;61372;-76
2021/11/29 10:50:06;;;;;;;10.30;4.70;;;;;;;2.68;90.79;99798.65;102134;1315;61242;-76
2021/11/29 10:52:33;;;;;;;9.30;4.50;;;;;;;2.66;90.50;99790.91;102487;1316;75574;-78
2021/11/29 10:55:02;;;;;;;9.10;4.50;;;;;;;2.69;90.60;99797.98;102234;1316;69723;-76
2021/11/29 10:57:29;;;;;;;11.90;5.80;;;;;;;2.70;90.70;99796.02;102310;1314;73947;-76
2021/11/29 10:59:57;;;;;;;8.40;3.70;;;;;;;2.71;90.56;99799.52;102202;1316;61322;-75
2021/11/29 11:02:26;;;;;;;19.60;6.10;;;;;;;2.72;90.11;99806.92;102224;1315;61713;-75
2021/11/29 11:05:06;;;;;;;14.20;5.40;;;;;;;2.74;89.81;99807.70;102342;1316;73083;-76
2021/11/29 11:07:35;;;;;;;10.40;5.20;;;;;;;2.72;89.65;99810.95;102288;1315;74650;-75
2021/11/29 11:10:13;;;;;;;11.20;4.40;;;;;;;2.72;90.01;99807.14;102231;1316;74128;-74
2021/11/29 11:12:41;;;;;;;16.30;5.30;;;;;;;2.75;90.15;99812.23;102393;1313;62225;-74
2021/11/29 11:15:12;;;;;;;12.40;5.10;;;;;;;2.76;89.24;99813.55;102330;1315;61397;-73
2021/11/29 11:17:59;;;;;;;12.50;5.10;;;;;;;2.77;89.36;99815.59;102318;1315;78230;-74
2021/11/29 11:20:26;;;;;;;9.80;5.00;;;;;;;2.78;89.60;99814.55;102395;1315;73488;-74
2021/11/29 11:22:55;;;;;;;11.50;3.90;;;;;;;2.76;88.92;99813.91;102080;1317;74257;-73
2021/11/29 11:25:26;;;;;;;10.00;4.30;;;;;;;2.72;88.30;99809.44;102493;1316;61393;-74
2021/11/29 11:28:09;;;;;;;11.10;5.20;;;;;;;2.70;88.51;99816.92;102476;1316;61410;-74
2021/11/29 11:30:39;;;;;;;9.60;5.00;;;;;;;2.69;88.28;99822.08;102292;1316;74917;-75
2021/11/29 11:33:09;;;;;;;13.80;5.40;;;;;;;2.69;88.42;99817.89;102309;1316;71592;-74
2021/11/29 11:35:42;;;;;;;15.90;6.00;;;;;;;2.69;88.69;99825.41;102381;1314;73130;-75